Time;durP1;ratioP1;P1;durP2;ratioP2;P2;SDS_P1;SDS_P2;PMS_P1;PMS_P2;Temp;Humidity;BMP_temperature;BMP_pressure;BME280_temperature;BME280_humidity;BME280_pressure;Samples;Min_cycle;Max_cycle;Signal;HPM_P1;HPM_P2
2023/07/26 00:00:27;;;;;;;6.38;3.53;;;;;;;13.99;82.64;101047.75;5067032;28;20068;-66
2023/07/26 00:02:52;;;;;;;5.20;3.40;;;;;;;14.02;82.32;101047.47;5061290;28;20041;-66
2023/07/26 00:05:17;;;;;;;4.05;3.15;;;;;;;14.02;82.79;101044.72;5051276;28;20040;-67
2023/07/26 00:07:43;;;;;;;7.07;3.13;;;;;;;14.04;82.95;101045.50;5065085;28;20056;-66
2023/07/26 00:10:08;;;;;;;3.80;3.40;;;;;;;14.04;81.74;101051.84;5066779;28;20032;-67
2023/07/26 00:12:34;;;;;;;5.10;3.55;;;;;;;14.02;82.03;101053.81;5067704;28;20092;-67
2023/07/26 00:14:59;;;;;;;3.97;3.17;;;;;;;14.04;81.98;101050.97;5067177;28;20026;-67
2023/07/26 00:17:25;;;;;;;4.13;3.20;;;;;;;14.02;81.31;101048.34;5067605;28;20072;-67
2023/07/26 00:19:50;;;;;;;5.57;3.90;;;;;;;14.00;80.46;101047.59;5066825;28;20036;-69
2023/07/26 00:22:15;;;;;;;6.03;3.78;;;;;;;13.99;80.21;101047.75;5048980;28;20033;-66
2023/07/26 00:24:41;;;;;;;6.25;3.83;;;;;;;13.95;79.54;101049.00;5066957;28;20040;-66
2023/07/26 00:27:06;;;;;;;6.57;3.75;;;;;;;13.92;79.00;101044.63;5067595;28;20448;-67
2023/07/26 00:29:31;;;;;;;5.13;4.07;;;;;;;13.91;80.45;101044.78;5067743;28;20051;-67
2023/07/26 00:31:57;;;;;;;4.90;3.33;;;;;;;13.91;80.19;101040.16;5066995;28;20380;-66
2023/07/26 00:34:22;;;;;;;4.90;3.13;;;;;;;13.90;80.69;101035.72;5048620;28;20017;-66
2023/07/26 00:36:48;;;;;;;4.75;3.15;;;;;;;13.87;82.05;101037.81;5062213;28;20032;-67
2023/07/26 00:39:14;;;;;;;4.05;3.53;;;;;;;13.82;81.39;101038.19;5067544;28;20387;-66
2023/07/26 00:41:39;;;;;;;6.82;3.70;;;;;;;13.77;82.49;101038.59;5054828;28;20029;-66
2023/07/26 00:44:04;;;;;;;5.13;3.00;;;;;;;13.73;82.13;101036.22;5051504;28;20488;-67
2023/07/26 00:46:30;;;;;;;4.72;3.40;;;;;;;13.69;81.89;101041.06;5066081;28;20119;-66
2023/07/26 00:48:57;;;;;;;3.67;3.10;;;;;;;13.65;82.21;101049.66;5067623;28;20021;-66
2023/07/26 00:51:24;;;;;;;6.32;3.83;;;;;;;13.61;83.08;101039.97;5060332;28;20056;-66
2023/07/26 00:53:51;;;;;;;3.47;3.17;;;;;;;13.59;83.15;101036.50;5043531;28;20048;-66
2023/07/26 00:56:16;;;;;;;7.82;3.80;;;;;;;13.57;83.63;101038.47;5066876;28;20032;-67
2023/07/26 00:58:44;;;;;;;6.28;3.80;;;;;;;13.56;82.87;101036.75;5067179;28;20091;-65
2023/07/26 01:01:10;;;;;;;5.85;4.07;;;;;;;13.50;83.72;101043.59;5066545;28;20068;-68
2023/07/26 01:03:35;;;;;;;3.97;3.22;;;;;;;13.47;83.29;101036.50;5064837;28;20453;-66
2023/07/26 01:06:19;;;;;;;6.65;3.75;;;;;;;13.44;83.06;101027.69;5066436;28;20056;-67
2023/07/26 01:09:08;;;;;;;4.43;3.40;;;;;;;13.42;82.94;101032.41;5066307;28;20512;-67
2023/07/26 01:11:54;;;;;;;4.43;3.65;;;;;;;13.36;83.01;101039.25;5046614;28;20037;-67
2023/07/26 01:14:27;;;;;;;5.15;3.53;;;;;;;13.27;83.51;101035.38;5047452;28;20400;-66
2023/07/26 01:16:53;;;;;;;10.63;4.15;;;;;;;13.25;83.78;101041.97;5066485;28;20451;-66
2023/07/26 01:19:18;;;;;;;5.15;3.67;;;;;;;13.21;84.59;101035.00;5067171;28;20044;-66
2023/07/26 01:21:44;;;;;;;6.93;3.70;;;;;;;13.20;84.29;101042.31;5065772;28;20410;-66
2023/07/26 01:24:09;;;;;;;5.75;3.47;;;;;;;13.19;84.64;101040.56;5065769;28;20048;-67
2023/07/26 01:26:35;;;;;;;5.50;3.63;;;;;;;13.18;84.74;101046.16;5066216;28;20122;-66
2023/07/26 01:29:00;;;;;;;7.80;4.20;;;;;;;13.16;84.64;101043.56;5067947;28;20040;-66
2023/07/26 01:31:26;;;;;;;7.03;4.00;;;;;;;13.13;84.91;101046.53;5047855;28;20093;-66
2023/07/26 01:33:52;;;;;;;7.65;4.78;;;;;;;13.12;84.76;101042.06;5048914;28;20215;-66
2023/07/26 01:36:23;;;;;;;6.72;4.40;;;;;;;13.08;85.18;101040.56;5047390;28;20131;-67
2023/07/26 01:38:50;;;;;;;9.45;5.20;;;;;;;13.07;85.44;101041.56;5067464;28;20037;-66
2023/07/26 01:41:17;;;;;;;7.45;4.30;;;;;;;13.08;85.26;101037.81;5065620;28;20025;-66
2023/07/26 01:43:44;;;;;;;5.75;3.97;;;;;;;13.10;85.36;101037.69;5054067;28;20025;-67
2023/07/26 01:46:13;;;;;;;9.65;6.00;;;;;;;13.09;85.45;101034.09;5059902;28;20036;-66
2023/07/26 01:48:39;;;;;;;5.90;4.68;;;;;;;13.12;84.21;101042.06;5066993;28;20074;-66
2023/07/26 01:51:05;;;;;;;8.27;4.22;;;;;;;13.13;84.27;101035.59;5047327;28;20095;-67
2023/07/26 01:53:31;;;;;;;6.28;4.38;;;;;;;13.12;84.89;101035.72;5067034;28;20044;-68
2023/07/26 01:55:57;;;;;;;5.22;4.70;;;;;;;13.09;84.48;101033.22;5066399;28;20039;-67
2023/07/26 01:58:22;;;;;;;5.07;4.00;;;;;;;13.08;84.15;101040.56;5052262;28;20127;-67
2023/07/26 02:00:47;;;;;;;5.03;3.95;;;;;;;13.06;83.68;101039.81;5048279;28;20039;-66
2023/07/26 02:03:13;;;;;;;8.57;4.70;;;;;;;13.02;84.03;101030.13;5064641;28;20085;-66
2023/07/26 02:05:44;;;;;;;6.50;3.90;;;;;;;13.02;84.48;101039.19;5064153;28;20038;-67
2023/07/26 02:08:10;;;;;;;5.90;3.80;;;;;;;13.03;84.59;101040.94;5051496;28;20040;-67
2023/07/26 02:10:35;;;;;;;5.78;4.35;;;;;;;13.04;84.39;101041.78;5068364;28;20170;-66
2023/07/26 02:13:02;;;;;;;6.78;4.70;;;;;;;13.06;84.66;101048.03;5068404;28;20470;-66
2023/07/26 02:15:27;;;;;;;7.25;5.03;;;;;;;13.06;85.90;101041.69;5069687;28;20035;-66
2023/07/26 02:17:53;;;;;;;6.78;4.05;;;;;;;13.04;85.41;101033.59;5069938;28;20147;-66
2023/07/26 02:20:19;;;;;;;7.00;4.95;;;;;;;13.06;85.60;101036.22;5068789;28;20063;-66
2023/07/26 02:22:44;;;;;;;6.88;4.25;;;;;;;13.10;86.34;101034.97;5067237;28;20032;-67
2023/07/26 02:25:09;;;;;;;5.18;3.90;;;;;;;13.10;86.05;101037.69;5069343;28;20395;-65
2023/07/26 02:27:35;;;;;;;6.30;4.30;;;;;;;13.09;85.28;101028.63;5069768;28;20035;-66
2023/07/26 02:30:00;;;;;;;5.45;4.13;;;;;;;13.10;85.08;101030.38;5059195;28;20484;-66
2023/07/26 02:32:28;;;;;;;8.73;4.60;;;;;;;13.10;86.23;101027.63;5051476;28;20036;-66
2023/07/26 02:34:54;;;;;;;7.82;4.03;;;;;;;13.11;86.49;101032.13;5050705;28;20471;-66
2023/07/26 02:37:20;;;;;;;5.40;4.20;;;;;;;13.14;87.10;101031.88;5068919;28;20032;-66
2023/07/26 02:39:45;;;;;;;8.02;4.95;;;;;;;13.14;87.32;101025.53;5068671;28;20058;-67
2023/07/26 02:42:10;;;;;;;7.13;5.00;;;;;;;13.07;86.95;101025.16;5065734;28;20033;-65
2023/07/26 02:44:36;;;;;;;5.63;3.83;;;;;;;13.06;86.00;101030.75;5069146;28;20040;-66
2023/07/26 02:47:02;;;;;;;7.28;4.90;;;;;;;13.07;86.78;101030.63;5066647;28;20040;-65
2023/07/26 02:49:27;;;;;;;8.38;4.40;;;;;;;13.06;86.37;101026.16;5068268;28;20037;-66
2023/07/26 02:51:52;;;;;;;5.97;4.32;;;;;;;13.07;86.09;101027.03;5068150;28;20040;-66
2023/07/26 02:54:18;;;;;;;5.55;4.30;;;;;;;13.09;87.85;101027.75;5069179;28;20049;-66
2023/07/26 02:56:43;;;;;;;4.68;4.13;;;;;;;13.11;88.32;101037.59;5050834;28;20017;-66
2023/07/26 02:59:09;;;;;;;5.75;4.35;;;;;;;13.11;87.35;101031.25;5068691;28;20028;-66
2023/07/26 03:01:34;;;;;;;5.93;4.68;;;;;;;13.07;89.14;101040.69;5050865;28;20036;-68
2023/07/26 03:03:59;;;;;;;5.53;4.65;;;;;;;12.99;88.97;101047.63;5041939;28;20095;-66
2023/07/26 03:06:26;;;;;;;5.75;4.05;;;;;;;13.02;87.81;101054.72;5062118;28;20412;-67
2023/07/26 03:08:52;;;;;;;5.50;4.05;;;;;;;13.05;87.91;101054.44;5050594;28;20165;-68
2023/07/26 03:11:17;;;;;;;6.63;4.40;;;;;;;13.06;88.37;101066.28;5068147;28;20044;-67
2023/07/26 03:13:43;;;;;;;4.82;4.07;;;;;;;13.05;87.96;101062.66;5068492;28;20032;-67
2023/07/26 03:16:08;;;;;;;6.80;4.20;;;;;;;12.99;87.64;101049.47;5056981;28;20037;-68
2023/07/26 03:18:34;;;;;;;5.22;4.45;;;;;;;12.99;88.54;101050.34;5068746;28;20035;-69
2023/07/26 03:20:59;;;;;;;4.68;3.88;;;;;;;13.00;89.11;101048.47;5050135;28;20032;-68
2023/07/26 03:23:24;;;;;;;5.60;4.47;;;;;;;12.97;88.98;101046.03;5039890;28;20052;-68
2023/07/26 03:25:50;;;;;;;6.90;4.22;;;;;;;12.95;88.68;101045.25;5048287;28;20045;-68
2023/07/26 03:28:16;;;;;;;6.60;4.28;;;;;;;12.92;88.86;101042.78;5048542;28;20033;-68
2023/07/26 03:30:41;;;;;;;5.55;4.18;;;;;;;12.86;88.84;101041.38;5060288;28;20158;-68
2023/07/26 03:33:08;;;;;;;6.47;4.80;;;;;;;12.76;89.61;101051.28;5065587;28;20040;-68
2023/07/26 03:35:34;;;;;;;6.03;4.60;;;;;;;12.72;89.33;101050.66;5068545;28;20107;-68
2023/07/26 03:37:59;;;;;;;8.20;4.28;;;;;;;12.67;89.31;101047.41;5067671;28;20061;-68
2023/07/26 03:40:25;;;;;;;7.55;4.13;;;;;;;12.62;89.67;101048.78;5068008;28;20412;-68
2023/07/26 03:42:50;;;;;;;5.93;3.55;;;;;;;12.54;89.91;101046.63;5055956;28;20036;-68
2023/07/26 03:45:16;;;;;;;7.07;4.40;;;;;;;12.49;90.01;101046.97;5054105;28;20475;-68
2023/07/26 03:47:42;;;;;;;7.13;4.25;;;;;;;12.43;90.57;101050.19;5067923;28;20471;-68
2023/07/26 03:50:07;;;;;;;7.53;4.20;;;;;;;12.37;90.44;101050.69;5067387;28;20094;-67
2023/07/26 03:52:33;;;;;;;6.78;4.78;;;;;;;12.34;89.96;101053.63;5067717;28;20139;-68
2023/07/26 03:54:58;;;;;;;6.78;4.30;;;;;;;12.30;89.66;101049.38;5067781;28;20024;-67
2023/07/26 03:57:24;;;;;;;5.85;4.35;;;;;;;12.24;89.85;101056.19;5068019;28;20481;-68
2023/07/26 03:59:50;;;;;;;17.98;4.25;;;;;;;12.19;90.43;101054.81;5067801;28;20028;-68
2023/07/26 04:02:18;;;;;;;8.65;4.38;;;;;;;12.13;90.76;101047.97;5065703;28;20028;-68
2023/07/26 04:04:43;;;;;;;6.43;4.60;;;;;;;12.09;90.52;101042.88;5068085;28;20415;-68
2023/07/26 04:07:09;;;;;;;8.50;5.10;;;;;;;12.06;90.94;101049.41;5065397;28;20123;-68
2023/07/26 04:09:34;;;;;;;10.98;4.43;;;;;;;12.02;90.90;101047.88;5067058;28;20043;-68
2023/07/26 04:12:01;;;;;;;8.40;4.70;;;;;;;12.00;90.71;101052.59;5066769;28;20044;-68
2023/07/26 04:14:26;;;;;;;11.00;5.63;;;;;;;11.96;91.25;101046.50;5067346;28;20040;-69
2023/07/26 04:16:51;;;;;;;6.05;4.38;;;;;;;11.95;91.98;101046.63;5066527;28;20078;-68
2023/07/26 04:19:17;;;;;;;5.97;4.32;;;;;;;11.93;91.44;101044.00;5068024;28;20044;-68
2023/07/26 04:21:42;;;;;;;5.47;4.53;;;;;;;11.91;91.17;101045.13;5066526;28;20486;-68
2023/07/26 04:24:08;;;;;;;7.15;4.43;;;;;;;11.89;91.45;101044.34;5067396;28;20240;-69
2023/07/26 04:26:33;;;;;;;5.68;4.22;;;;;;;11.85;91.35;101038.28;5067424;28;20062;-68
2023/07/26 04:28:59;;;;;;;5.20;4.25;;;;;;;11.87;91.08;101043.59;5067291;28;20029;-68
2023/07/26 04:31:24;;;;;;;8.15;4.97;;;;;;;11.86;91.57;101047.31;5066963;28;20028;-68
2023/07/26 04:33:50;;;;;;;6.88;4.07;;;;;;;11.85;91.42;101046.44;5067533;28;20484;-68
2023/07/26 04:36:15;;;;;;;8.32;4.65;;;;;;;11.85;91.88;101048.31;5048597;28;20025;-68
2023/07/26 04:38:40;;;;;;;6.28;4.65;;;;;;;11.83;92.21;101044.81;5067264;28;20485;-68
2023/07/26 04:41:06;;;;;;;5.07;3.90;;;;;;;11.84;91.76;101052.00;5066795;28;20470;-70
2023/07/26 04:43:31;;;;;;;7.47;3.78;;;;;;;11.85;91.74;101049.19;5068173;28;20033;-68
2023/07/26 04:45:57;;;;;;;6.55;4.18;;;;;;;11.90;91.16;101052.44;5067287;28;20131;-68
2023/07/26 04:48:22;;;;;;;6.10;4.20;;;;;;;11.90;92.19;101051.56;5049126;28;20426;-68
2023/07/26 04:50:49;;;;;;;7.68;4.22;;;;;;;11.88;93.30;101048.06;5066216;28;20078;-68
2023/07/26 04:53:15;;;;;;;5.80;4.22;;;;;;;11.90;92.55;101051.56;5066886;28;20453;-68
2023/07/26 04:55:46;;;;;;;9.13;4.82;;;;;;;11.91;93.22;101045.13;5055184;28;20403;-67
2023/07/26 04:58:11;;;;;;;6.40;4.50;;;;;;;11.92;93.10;101050.44;5053777;28;20037;-67
2023/07/26 05:00:38;;;;;;;5.55;4.10;;;;;;;11.93;93.43;101049.44;5036587;28;20070;-70
2023/07/26 05:03:04;;;;;;;9.27;5.40;;;;;;;11.94;94.18;101050.34;5056371;28;20040;-68
2023/07/26 05:05:30;;;;;;;5.55;4.05;;;;;;;11.97;93.79;101048.22;5053351;28;20032;-68
2023/07/26 05:07:55;;;;;;;6.57;4.97;;;;;;;12.02;93.59;101047.03;5045816;28;20095;-69
2023/07/26 05:10:21;;;;;;;6.75;4.85;;;;;;;12.03;94.27;101046.03;5046631;28;20043;-68
2023/07/26 05:12:46;;;;;;;6.15;5.03;;;;;;;12.05;93.94;101050.41;5059963;28;20501;-68
2023/07/26 05:15:12;;;;;;;8.85;6.40;;;;;;;12.09;94.87;101043.72;5051625;28;20040;-68
2023/07/26 05:17:37;;;;;;;10.18;5.47;;;;;;;12.16;94.16;101046.84;5046892;28;20025;-69
2023/07/26 05:20:03;;;;;;;9.68;5.45;;;;;;;12.18;94.82;101050.34;5063575;28;20033;-68
2023/07/26 05:22:28;;;;;;;8.18;5.95;;;;;;;12.21;95.58;101053.69;5050368;28;20230;-68
2023/07/26 05:24:53;;;;;;;10.02;6.35;;;;;;;12.23;94.88;101049.00;5048675;28;20041;-69
2023/07/26 05:27:19;;;;;;;9.63;6.10;;;;;;;12.27;94.05;101046.91;5037598;28;20070;-68
2023/07/26 05:29:44;;;;;;;10.35;6.90;;;;;;;12.32;95.26;101041.97;5065654;28;20033;-69
2023/07/26 05:32:10;;;;;;;8.05;6.00;;;;;;;12.38;94.67;101052.41;5066146;28;20480;-68
2023/07/26 05:34:35;;;;;;;10.45;6.40;;;;;;;12.42;95.53;101044.88;5067080;28;20028;-68
2023/07/26 05:37:02;;;;;;;10.50;6.68;;;;;;;12.46;94.62;101041.78;5047764;28;20065;-68
2023/07/26 05:39:27;;;;;;;7.28;6.18;;;;;;;12.59;95.58;101043.53;5035241;28;20120;-68
2023/07/26 05:41:52;;;;;;;11.80;6.75;;;;;;;12.74;95.67;101045.97;5070811;28;20120;-67
2023/07/26 05:44:18;;;;;;;13.50;7.20;;;;;;;12.91;95.26;101052.81;5070905;28;20041;-68
2023/07/26 05:46:43;;;;;;;15.02;7.32;;;;;;;13.10;96.14;101048.63;5070407;28;20475;-68
2023/07/26 05:49:09;;;;;;;9.52;6.57;;;;;;;13.25;95.08;101052.91;5070900;28;20050;-69
2023/07/26 05:51:35;;;;;;;11.75;6.97;;;;;;;13.40;94.53;101053.53;5069925;28;20033;-68
2023/07/26 05:54:00;;;;;;;13.05;7.18;;;;;;;13.51;93.96;101054.38;5069698;28;20450;-69
2023/07/26 05:56:25;;;;;;;10.07;6.75;;;;;;;13.62;92.90;101055.41;5069676;28;20369;-68
2023/07/26 05:58:51;;;;;;;11.40;7.40;;;;;;;13.71;93.39;101055.50;5064471;28;20037;-70
2023/07/26 06:01:16;;;;;;;12.82;6.90;;;;;;;13.84;93.60;101060.81;5067880;28;20035;-68
2023/07/26 06:03:43;;;;;;;12.55;7.38;;;;;;;13.99;93.25;101058.69;5067490;28;20031;-68
2023/07/26 06:06:08;;;;;;;12.45;7.00;;;;;;;14.14;93.41;101067.47;5069685;28;20468;-68
2023/07/26 06:08:34;;;;;;;13.02;7.85;;;;;;;14.23;93.22;101069.44;5068253;28;20032;-69
2023/07/26 06:10:59;;;;;;;10.23;7.47;;;;;;;14.29;92.60;101063.44;5069408;28;20060;-68
2023/07/26 06:13:24;;;;;;;17.52;8.20;;;;;;;14.35;92.87;101075.72;5069466;28;20033;-68
2023/07/26 06:15:50;;;;;;;13.40;7.65;;;;;;;14.37;92.41;101076.50;5069223;28;20101;-68
2023/07/26 06:18:15;;;;;;;11.48;7.65;;;;;;;14.40;91.46;101078.94;5047002;28;20029;-67
2023/07/26 06:20:41;;;;;;;12.50;8.27;;;;;;;14.37;93.47;101082.81;5069115;28;20036;-67
2023/07/26 06:23:07;;;;;;;14.75;7.82;;;;;;;14.43;92.34;101090.50;5068735;28;20159;-68
2023/07/26 06:25:32;;;;;;;11.25;7.40;;;;;;;14.46;92.39;101092.13;5068422;28;20040;-67
2023/07/26 06:27:58;;;;;;;13.88;7.70;;;;;;;14.50;92.32;101097.25;5069248;28;20552;-68
2023/07/26 06:30:23;;;;;;;11.70;7.65;;;;;;;14.51;92.07;101101.72;5068035;28;20032;-67
2023/07/26 06:32:49;;;;;;;11.80;8.02;;;;;;;14.55;91.83;101105.06;5069278;28;20037;-67
2023/07/26 06:35:15;;;;;;;12.18;8.45;;;;;;;14.51;92.00;101109.06;5068664;28;20044;-67
2023/07/26 06:37:40;;;;;;;11.73;8.13;;;;;;;14.45;92.90;101117.75;5067984;28;20127;-69
2023/07/26 06:40:06;;;;;;;12.43;9.73;;;;;;;14.41;92.86;101111.69;5068678;28;20116;-66
2023/07/26 06:42:32;;;;;;;18.85;8.50;;;;;;;14.39;92.87;101116.41;5068768;28;20036;-67
2023/07/26 06:44:58;;;;;;;13.40;8.60;;;;;;;14.36;93.49;101116.69;5068575;28;20417;-68
2023/07/26 06:47:23;;;;;;;15.50;9.05;;;;;;;14.36;94.53;101124.00;5057878;28;20040;-68
2023/07/26 06:49:49;;;;;;;14.80;8.15;;;;;;;14.35;93.89;101116.78;5049189;28;20066;-68
2023/07/26 06:52:15;;;;;;;14.38;9.07;;;;;;;14.39;95.36;101118.28;5067483;28;20123;-66
2023/07/26 06:54:40;;;;;;;13.43;8.65;;;;;;;14.43;94.06;101120.63;5067284;28;20565;-66
2023/07/26 06:57:06;;;;;;;15.00;8.40;;;;;;;14.50;94.77;101123.72;5058127;28;20120;-67
2023/07/26 06:59:31;;;;;;;14.73;8.75;;;;;;;14.54;96.29;101126.06;5048430;28;20033;-67
2023/07/26 07:01:57;;;;;;;16.98;9.50;;;;;;;14.56;95.00;101131.44;5066765;28;20545;-67
2023/07/26 07:04:22;;;;;;;17.45;8.73;;;;;;;14.61;95.57;101131.06;5068882;28;20047;-67
2023/07/26 07:06:47;;;;;;;14.02;8.60;;;;;;;14.58;95.69;101126.69;5067178;28;20492;-66
2023/07/26 07:09:13;;;;;;;15.55;8.43;;;;;;;14.55;94.42;101126.97;5068589;28;20036;-67
2023/07/26 07:11:39;;;;;;;10.25;7.70;;;;;;;14.55;94.41;101140.66;5069015;28;20109;-67
2023/07/26 07:14:04;;;;;;;11.48;8.60;;;;;;;14.50;95.27;101152.00;5067656;28;20041;-67
2023/07/26 07:31:12;;;;;;;15.73;10.07;;;;;;;14.21;98.12;101165.31;5116350;27;20907;-71
2023/07/26 07:33:37;;;;;;;18.55;10.35;;;;;;;14.37;99.39;101167.69;5104133;28;20039;-72
2023/07/26 07:36:04;;;;;;;17.42;10.43;;;;;;;14.48;98.57;101161.34;5103609;28;20024;-70
2023/07/26 07:38:30;;;;;;;15.27;10.25;;;;;;;14.58;98.28;101170.50;5086192;28;20032;-71
2023/07/26 07:40:55;;;;;;;16.20;9.43;;;;;;;14.69;96.68;101173.22;5122959;28;20039;-70
2023/07/26 07:43:21;;;;;;;15.93;10.05;;;;;;;14.75;97.38;101172.69;5120538;28;20069;-70
2023/07/26 07:45:46;;;;;;;16.80;10.38;;;;;;;14.85;97.20;101172.78;5104089;28;20388;-70
2023/07/26 07:48:12;;;;;;;15.88;9.55;;;;;;;14.94;96.35;101165.66;5104246;28;20028;-70
2023/07/26 07:50:37;;;;;;;14.85;9.10;;;;;;;15.08;95.67;101165.34;5104088;28;20052;-71
2023/07/26 07:53:03;;;;;;;14.07;9.25;;;;;;;15.18;95.28;101163.53;5099063;28;20349;-71
2023/07/26 07:55:31;;;;;;;17.42;9.48;;;;;;;15.39;95.47;101159.91;5104716;28;20031;-70
2023/07/26 07:58:00;;;;;;;11.75;8.88;;;;;;;15.55;95.44;101155.69;5104075;28;20043;-71
2023/07/26 08:00:26;;;;;;;15.30;9.65;;;;;;;15.79;94.60;101157.28;5084866;28;20038;-71
2023/07/26 08:02:51;;;;;;;18.92;10.20;;;;;;;15.89;94.05;101157.31;5103959;28;20063;-71
2023/07/26 08:05:17;;;;;;;16.65;10.98;;;;;;;15.89;93.32;101152.69;5089838;28;20040;-71
2023/07/26 08:07:42;;;;;;;15.50;9.85;;;;;;;16.00;94.20;101160.84;5102677;28;20036;-71
2023/07/26 08:10:08;;;;;;;16.83;10.80;;;;;;;16.16;93.99;101159.47;5084869;28;20479;-71
2023/07/26 08:12:35;;;;;;;14.20;9.80;;;;;;;16.72;94.14;101157.00;5103089;28;20137;-70
2023/07/26 08:15:00;;;;;;;15.77;10.07;;;;;;;17.33;92.96;101155.81;5086415;28;20548;-71
2023/07/26 08:17:26;;;;;;;14.23;9.20;;;;;;;17.72;89.08;101158.47;5101623;28;20031;-71
2023/07/26 08:19:51;;;;;;;15.02;9.38;;;;;;;18.15;87.13;101157.03;5084907;28;20486;-70
2023/07/26 08:22:16;;;;;;;17.73;9.43;;;;;;;18.58;83.66;101162.72;5099059;28;20051;-71
2023/07/26 08:24:42;;;;;;;13.30;8.35;;;;;;;18.90;83.38;101164.09;5102699;28;20043;-71
2023/07/26 08:27:07;;;;;;;12.35;8.38;;;;;;;19.30;83.48;101160.81;5103141;28;20078;-71
2023/07/26 08:29:32;;;;;;;14.90;8.60;;;;;;;19.68;80.78;101169.78;5102682;28;20036;-71
2023/07/26 08:31:58;;;;;;;13.38;8.48;;;;;;;19.98;78.37;101167.53;5090544;28;20062;-70
2023/07/26 08:34:23;;;;;;;11.02;8.70;;;;;;;20.11;75.87;101160.53;5108278;28;20537;-71
2023/07/26 08:36:48;;;;;;;14.02;8.70;;;;;;;20.23;75.45;101160.22;5087195;28;20124;-72
2023/07/26 08:39:14;;;;;;;10.50;7.80;;;;;;;;;;5089831;28;20112;-70
2023/07/26 08:41:40;;;;;;;12.73;7.65;;;;;;;20.80;73.02;101154.91;5088519;28;20028;-71
2023/07/26 08:44:08;;;;;;;12.18;8.10;;;;;;;21.15;72.31;101157.34;5089749;28;20039;-70
2023/07/26 08:46:42;;;;;;;10.00;7.25;;;;;;;21.39;70.70;101158.41;5090086;28;20032;-70
2023/07/26 08:49:09;;;;;;;12.80;8.27;;;;;;;21.66;72.57;101157.16;5089742;28;20039;-71
2023/07/26 08:51:34;;;;;;;8.50;6.35;;;;;;;21.82;71.75;101154.38;5088050;28;20040;-69
2023/07/26 08:54:00;;;;;;;11.18;7.00;;;;;;;21.59;67.58;101145.06;5089842;28;20377;-71
2023/07/26 08:56:26;;;;;;;15.27;7.45;;;;;;;21.74;72.01;101146.09;5088920;28;20047;-71
2023/07/26 08:58:52;;;;;;;9.60;6.50;;;;;;;22.02;68.76;101149.28;5089324;28;20047;-71
2023/07/26 09:01:17;;;;;;;10.00;7.32;;;;;;;21.97;66.62;101148.97;5089291;28;20392;-70
2023/07/26 09:03:43;;;;;;;9.32;6.35;;;;;;;22.04;68.01;101143.56;5089079;28;20024;-71
2023/07/26 09:06:08;;;;;;;7.78;5.00;;;;;;;22.37;64.66;101141.53;5102862;28;20340;-70
2023/07/26 09:08:34;;;;;;;6.80;5.00;;;;;;;22.69;62.86;101137.72;5104762;28;20059;-72
2023/07/26 09:11:03;;;;;;;7.03;5.25;;;;;;;22.83;61.59;101131.38;5087140;28;20032;-72
2023/07/26 09:13:29;;;;;;;8.93;5.30;;;;;;;22.84;64.27;101140.56;5089172;28;20028;-70
2023/07/26 09:15:54;;;;;;;8.77;5.78;;;;;;;22.71;63.43;101137.53;5095085;28;20897;-72
2023/07/26 09:18:20;;;;;;;8.95;5.82;;;;;;;22.34;62.07;101130.84;5105114;28;20035;-71
2023/07/26 09:20:45;;;;;;;9.93;5.45;;;;;;;22.17;67.21;101137.50;5088319;28;20452;-70
2023/07/26 09:23:12;;;;;;;8.13;5.60;;;;;;;21.81;64.02;101137.91;5088533;28;20407;-71
2023/07/26 09:25:40;;;;;;;7.75;5.72;;;;;;;21.45;65.83;101135.59;5088402;28;20027;-70
2023/07/26 09:28:14;;;;;;;12.02;5.28;;;;;;;21.38;68.30;101134.53;5089022;28;20036;-70
2023/07/26 09:30:41;;;;;;;9.80;6.07;;;;;;;21.51;65.44;101134.88;5087855;28;20101;-70
2023/07/26 09:33:09;;;;;;;12.60;6.43;;;;;;;21.84;68.31;101130.13;5088663;28;20089;-70
2023/07/26 09:35:46;;;;;;;8.48;6.22;;;;;;;22.22;66.28;101132.28;5088467;28;20040;-70
2023/07/26 09:38:14;;;;;;;8.35;4.82;;;;;;;22.22;60.34;101135.03;5088140;28;20127;-71
2023/07/26 09:40:39;;;;;;;6.85;4.80;;;;;;;21.91;58.91;101131.13;5088263;28;20430;-71
2023/07/26 09:43:05;;;;;;;5.20;4.13;;;;;;;21.43;58.17;101134.88;5092694;28;20036;-70
2023/07/26 09:45:31;;;;;;;6.32;3.90;;;;;;;21.12;59.95;101129.16;5090915;28;20275;-72
2023/07/26 09:48:08;;;;;;;8.65;4.97;;;;;;;20.73;62.37;101129.81;5088081;28;20210;-71
2023/07/26 09:50:37;;;;;;;8.15;4.53;;;;;;;20.85;61.71;101128.47;5098259;28;20472;-71
2023/07/26 09:53:06;;;;;;;9.95;5.35;;;;;;;20.81;63.02;101142.81;5099350;28;20056;-72
2023/07/26 09:55:32;;;;;;;6.38;4.10;;;;;;;21.00;64.01;101138.84;5107900;27;20050;-72
2023/07/26 09:57:59;;;;;;;6.97;3.40;;;;;;;21.10;60.91;101142.31;5108622;28;20030;-71
2023/07/26 10:00:28;;;;;;;6.75;3.17;;;;;;;21.51;60.93;101136.78;5108908;28;20445;-72
2023/07/26 10:03:03;;;;;;;3.92;3.00;;;;;;;21.94;60.13;101138.22;5102813;28;20055;-71
2023/07/26 10:05:34;;;;;;;5.10;2.70;;;;;;;22.33;57.61;101129.94;5088222;28;20047;-71
2023/07/26 10:08:00;;;;;;;2.22;1.92;;;;;;;22.51;55.64;101131.59;5087323;28;20039;-71
2023/07/26 10:10:27;;;;;;;5.38;2.50;;;;;;;22.63;53.74;101132.91;5086085;28;20101;-72
2023/07/26 10:12:57;;;;;;;3.72;2.40;;;;;;;22.63;54.79;101138.47;5086796;28;20507;-72
2023/07/26 10:15:24;;;;;;;3.92;2.30;;;;;;;22.56;53.48;101143.00;5089465;28;20482;-71
2023/07/26 10:17:52;;;;;;;3.78;2.75;;;;;;;22.20;54.94;101138.00;5087893;28;20392;-72
2023/07/26 10:20:18;;;;;;;3.78;2.70;;;;;;;22.09;55.75;101138.34;5088146;28;20067;-73
2023/07/26 10:22:43;;;;;;;4.82;2.95;;;;;;;21.93;56.17;101139.28;5086750;28;20500;-72
2023/07/26 10:25:10;;;;;;;4.65;3.20;;;;;;;22.10;56.81;101140.06;5087584;28;20047;-71
2023/07/26 10:27:36;;;;;;;5.03;3.33;;;;;;;22.45;57.42;101135.97;5088057;28;20075;-72
2023/07/26 10:30:03;;;;;;;5.68;3.78;;;;;;;22.74;57.12;101128.84;5103533;28;20108;-72
2023/07/26 10:32:28;;;;;;;6.13;3.72;;;;;;;23.05;54.29;101117.72;5108030;28;20373;-71
2023/07/26 10:34:58;;;;;;;6.55;3.78;;;;;;;23.31;55.95;101123.72;5102399;28;20085;-73
2023/07/26 10:37:31;;;;;;;8.30;3.67;;;;;;;23.54;54.52;101118.13;5085080;28;20024;-72
2023/07/26 10:39:56;;;;;;;5.80;3.90;;;;;;;23.54;54.65;101129.22;5087502;28;20079;-72
2023/07/26 10:42:27;;;;;;;6.70;4.07;;;;;;;23.56;54.88;101118.81;5086371;28;20059;-72
2023/07/26 10:45:00;;;;;;;6.25;3.85;;;;;;;23.73;56.77;101113.97;5088062;28;20039;-72
2023/07/26 10:47:25;;;;;;;7.78;3.90;;;;;;;24.01;56.56;101111.38;5087260;28;20100;-72
2023/07/26 10:49:54;;;;;;;6.30;3.20;;;;;;;24.13;56.00;101120.09;5090867;28;20047;-71
2023/07/26 10:52:20;;;;;;;8.13;4.20;;;;;;;23.99;52.50;101120.97;5091780;28;20496;-72
2023/07/26 10:54:50;;;;;;;8.00;4.10;;;;;;;23.97;53.87;101125.84;5087501;28;20490;-71
2023/07/26 10:57:26;;;;;;;7.75;4.10;;;;;;;24.13;56.10;101126.50;5086455;28;20028;-71
2023/07/26 11:00:10;;;;;;;7.95;4.82;;;;;;;24.05;55.18;101120.19;5087481;28;20409;-72
2023/07/26 11:02:48;;;;;;;9.20;4.90;;;;;;;24.05;53.26;101120.19;5087311;28;20055;-71
2023/07/26 11:05:23;;;;;;;7.97;4.68;;;;;;;24.08;55.62;101117.91;5087311;28;20056;-73
2023/07/26 11:07:54;;;;;;;9.23;4.78;;;;;;;24.21;52.31;101114.44;5084965;28;20050;-72
2023/07/26 11:10:31;;;;;;;9.20;4.40;;;;;;;24.19;53.39;101110.97;5086828;28;20057;-72
2023/07/26 11:13:13;;;;;;;6.25;3.85;;;;;;;23.86;53.66;101122.50;5087374;28;20730;-71
2023/07/26 11:15:41;;;;;;;7.68;4.80;;;;;;;23.27;51.45;101122.41;5087061;28;20063;-71
2023/07/26 11:18:07;;;;;;;8.05;4.47;;;;;;;23.34;56.00;101120.59;5087268;28;20039;-72
2023/07/26 11:20:36;;;;;;;6.65;3.83;;;;;;;23.54;53.95;101123.69;5087408;28;20507;-71
2023/07/26 11:23:14;;;;;;;5.18;3.55;;;;;;;23.59;55.42;101114.78;5086775;28;20083;-71
2023/07/26 11:25:39;;;;;;;5.05;3.40;;;;;;;23.44;54.39;101120.31;5087167;28;20046;-72
2023/07/26 11:28:05;;;;;;;6.90;3.70;;;;;;;23.18;52.42;101126.31;5087647;28;20148;-71
2023/07/26 11:30:30;;;;;;;7.90;3.50;;;;;;;22.63;51.41;101125.44;5086803;28;20468;-71
2023/07/26 11:32:56;;;;;;;5.40;2.78;;;;;;;22.62;53.42;101132.06;5086929;28;20069;-72